createdAt,value
2022-09-24T00:00:27.264Z,114.10
2022-09-24T00:05:43.896Z,114.25
2022-09-24T00:10:36.846Z,115.03
2022-09-24T00:15:36.780Z,115.50
2022-09-24T00:20:36.689Z,116.06
2022-09-24T00:25:36.581Z,115.66
2022-09-24T00:30:37.841Z,116.54
2022-09-24T00:35:37.988Z,116.30
2022-09-24T00:40:36.459Z,116.70
2022-09-24T00:45:36.348Z,117.02
2022-09-24T00:50:36.303Z,116.86
2022-09-24T00:55:36.237Z,117.60
2022-09-24T01:00:36.215Z,117.76
2022-09-24T01:05:36.157Z,117.76
2022-09-24T01:10:35.990Z,118.75
2022-09-24T01:15:35.951Z,118.42
2022-09-24T01:20:35.867Z,119.51
2022-09-24T01:25:35.790Z,118.75
2022-09-24T01:30:35.776Z,119.43
2022-09-24T01:35:35.721Z,119.60
2022-09-24T01:40:35.626Z,120.28
2022-09-24T01:45:36.508Z,120.11
2022-09-24T01:50:35.640Z,120.36
2022-09-24T01:55:35.405Z,119.76
2022-09-24T02:00:35.320Z,120.79
2022-09-24T02:05:35.253Z,121.05
2022-09-24T02:10:35.174Z,121.49
2022-09-24T02:15:35.130Z,121.32
2022-09-24T02:20:35.047Z,120.79
2022-09-24T02:25:34.978Z,121.67
2022-09-24T02:30:34.927Z,122.02
2022-09-24T02:35:34.869Z,122.55
2022-09-24T02:40:34.831Z,122.46
2022-09-24T02:45:34.728Z,123.18
2022-09-24T02:50:34.652Z,123.18
2022-09-24T02:55:34.590Z,123.54
2022-09-24T03:00:34.526Z,123.44
2022-09-24T03:05:34.470Z,123.54
2022-09-24T03:10:35.193Z,124.08
2022-09-24T03:15:34.326Z,123.72
2022-09-24T03:20:34.252Z,123.81
2022-09-24T03:25:34.182Z,124.36
2022-09-24T03:30:34.131Z,124.36
2022-09-24T03:35:34.043Z,124.08
2022-09-24T03:40:34.027Z,124.72
2022-09-24T03:45:33.947Z,124.54
2022-09-24T03:50:33.858Z,124.36
2022-09-24T03:55:33.784Z,124.36
2022-09-24T04:00:36.419Z,123.99
2022-09-24T04:05:34.659Z,124.36
2022-09-24T04:10:33.580Z,124.45
2022-09-24T04:15:48.159Z,123.81
2022-09-24T04:20:40.491Z,123.00
2022-09-24T04:25:40.433Z,123.44
2022-09-24T04:30:41.446Z,123.72
2022-09-24T04:35:40.248Z,123.26
2022-09-24T04:40:40.297Z,122.64
2022-09-24T04:45:40.178Z,123.90
2022-09-24T04:50:44.985Z,122.46
2022-09-24T04:55:41.022Z,123.00
2022-09-24T05:00:39.972Z,124.17
2022-09-24T05:05:39.887Z,123.44
2022-09-24T05:10:39.792Z,122.55
2022-09-24T05:15:42.996Z,122.19
2022-09-24T05:20:39.670Z,122.55
2022-09-24T05:25:39.602Z,122.55
2022-09-24T05:30:39.560Z,122.37
2022-09-24T05:35:39.499Z,122.02
2022-09-24T05:40:39.574Z,122.19
2022-09-24T05:45:39.340Z,122.19
2022-09-24T05:50:41.010Z,122.19
2022-09-24T05:55:39.312Z,122.28
2022-09-24T06:00:39.133Z,121.23
2022-09-24T06:05:39.093Z,121.32
2022-09-24T06:10:39.014Z,121.49
2022-09-24T06:15:38.959Z,120.79
2022-09-24T06:20:38.879Z,119.85
2022-09-24T06:25:38.807Z,119.51
2022-09-24T06:30:38.750Z,118.67
2022-09-24T06:35:38.672Z,118.84
2022-09-24T06:40:38.718Z,118.34
2022-09-24T06:45:38.533Z,117.43
2022-09-24T06:50:38.548Z,116.94
2022-09-24T06:55:38.413Z,115.66
2022-09-24T07:00:38.412Z,115.27
2022-09-24T07:05:43.238Z,114.79
2022-09-24T07:10:39.193Z,113.71
2022-09-24T07:15:38.266Z,113.56
2022-09-24T07:20:38.084Z,113.18
2022-09-24T07:25:38.001Z,112.28
2022-09-24T07:30:37.966Z,111.68
2022-09-24T07:35:37.839Z,110.95
2022-09-24T07:40:37.903Z,110.08
2022-09-24T07:45:37.746Z,109.51
2022-09-24T07:50:37.710Z,108.03
2022-09-24T07:55:37.823Z,106.60
2022-09-24T08:00:37.570Z,106.47
2022-09-24T08:05:37.456Z,105.40
2022-09-24T08:10:37.611Z,105.01
2022-09-24T08:15:37.380Z,103.27
2022-09-24T08:20:37.300Z,100.15
2022-09-24T08:25:37.202Z,94.86
2022-09-24T08:30:37.115Z,91.29
2022-09-24T08:35:37.048Z,85.30
2022-09-24T08:40:37.061Z,77.75
2022-09-24T08:45:36.920Z,71.43
2022-09-24T08:50:36.873Z,66.64
2022-09-24T08:55:36.790Z,63.96
2022-09-24T09:00:36.697Z,62.58
2022-09-24T09:05:38.483Z,62.91
2022-09-24T09:10:36.612Z,63.67
2022-09-24T09:15:36.608Z,64.06
2022-09-24T09:20:36.457Z,64.35
2022-09-24T09:25:37.323Z,64.89
2022-09-24T09:30:37.627Z,62.86
2022-09-24T09:35:37.897Z,60.96
2022-09-24T09:40:36.624Z,59.54
2022-09-24T09:45:38.230Z,55.98
2022-09-24T09:50:36.042Z,55.14
2022-09-24T09:55:36.034Z,54.46
2022-09-24T10:00:35.894Z,53.97
2022-09-24T10:05:35.850Z,54.11
2022-09-24T10:10:35.792Z,53.87
2022-09-24T10:15:37.423Z,53.60
2022-09-24T10:20:35.650Z,53.74
2022-09-24T10:25:35.576Z,53.87
2022-09-24T10:30:35.528Z,54.43
2022-09-24T10:35:35.448Z,55.87
2022-09-24T10:40:35.499Z,57.62
2022-09-24T10:45:35.314Z,59.16
2022-09-24T10:50:35.259Z,61.67
2022-09-24T10:55:35.189Z,63.43
2022-09-24T11:00:35.657Z,65.04
2022-09-24T11:05:35.067Z,66.37
2022-09-24T11:10:34.927Z,68.14
2022-09-24T11:15:35.103Z,68.75
2022-09-24T11:20:34.851Z,69.32
2022-09-24T11:25:34.792Z,70.18
2022-09-24T11:30:34.703Z,71.01
2022-09-24T11:35:34.698Z,71.01
2022-09-24T11:40:34.611Z,71.07
2022-09-24T11:45:34.502Z,70.77
2022-09-24T11:50:34.440Z,71.67
2022-09-24T11:55:34.427Z,71.67
2022-09-24T12:00:34.315Z,71.98
2022-09-24T12:05:34.228Z,71.74
2022-09-24T12:10:34.157Z,71.80
2022-09-24T12:15:34.097Z,71.61
2022-09-24T12:20:34.129Z,71.25
2022-09-24T12:25:33.951Z,71.80
2022-09-24T12:30:33.960Z,70.18
2022-09-24T12:35:33.810Z,69.38
2022-09-24T12:40:33.867Z,68.42
2022-09-24T12:45:33.663Z,68.14
2022-09-24T12:50:33.634Z,68.14
2022-09-24T12:55:33.547Z,67.81
2022-09-24T13:00:34.678Z,68.03
2022-09-24T13:05:33.410Z,67.92
2022-09-24T13:10:33.350Z,68.47
2022-09-24T13:15:33.402Z,68.70
2022-09-24T13:20:33.215Z,69.15
2022-09-24T13:25:33.153Z,69.43
2022-09-24T13:30:33.088Z,70.07
2022-09-24T13:35:32.993Z,70.54
2022-09-24T13:40:33.081Z,70.89
2022-09-24T13:45:32.880Z,71.01
2022-09-24T13:50:32.946Z,71.31
2022-09-24T13:55:33.082Z,71.61
2022-09-24T14:00:32.664Z,71.86
2022-09-24T14:05:32.675Z,71.86
2022-09-24T14:10:32.628Z,72.23
2022-09-24T14:15:32.523Z,72.35
2022-09-24T14:20:32.431Z,72.41
2022-09-24T14:25:32.337Z,72.29
2022-09-24T14:30:32.291Z,72.41
2022-09-24T14:35:32.206Z,72.54
2022-09-24T14:40:32.158Z,73.23
2022-09-24T14:45:32.181Z,74.13
2022-09-24T14:51:17.975Z,74.07
2022-09-24T14:56:17.952Z,74.46
2022-09-24T15:01:17.926Z,75.05
2022-09-24T15:06:17.792Z,75.79
2022-09-24T15:11:17.710Z,76.41
2022-09-24T15:16:17.674Z,76.48
2022-09-24T15:21:17.620Z,77.11
2022-09-24T15:26:17.508Z,77.68
2022-09-24T15:31:18.786Z,77.82
2022-09-24T15:36:17.417Z,78.55
2022-09-24T15:41:17.290Z,79.21
2022-09-24T15:46:17.271Z,80.19
2022-09-24T15:51:17.169Z,80.04
2022-09-24T15:56:17.089Z,81.19
2022-09-24T16:01:17.163Z,81.82
2022-09-24T16:06:16.965Z,82.62
2022-09-24T16:11:16.892Z,83.44
2022-09-24T16:16:16.923Z,83.77
2022-09-24T16:21:16.747Z,84.36
2022-09-24T16:26:16.743Z,84.95
2022-09-24T16:31:16.646Z,84.78
2022-09-24T16:36:16.589Z,85.47
2022-09-24T16:41:16.482Z,85.56
2022-09-24T16:46:20.443Z,85.82
2022-09-24T16:51:16.842Z,85.90
2022-09-24T16:56:16.323Z,86.34
2022-09-24T17:01:16.320Z,86.34
2022-09-24T17:06:16.207Z,86.70
2022-09-24T17:11:16.107Z,86.61
2022-09-24T17:16:16.081Z,87.24
2022-09-24T17:21:15.943Z,87.60
2022-09-24T17:26:15.880Z,88.06
2022-09-24T17:31:15.879Z,87.87
2022-09-24T17:36:15.753Z,87.87
2022-09-24T17:41:15.725Z,88.15
2022-09-24T17:46:15.723Z,88.24
2022-09-24T17:51:15.554Z,88.98
2022-09-24T17:56:15.483Z,88.98
2022-09-24T18:01:15.527Z,90.12
2022-09-24T18:06:15.975Z,89.74
2022-09-24T18:11:15.291Z,89.46
2022-09-24T18:16:15.276Z,88.98
2022-09-24T18:21:15.184Z,90.22
2022-09-24T18:26:15.224Z,89.84
2022-09-24T18:31:15.084Z,90.22
2022-09-24T18:36:15.285Z,90.12
2022-09-24T18:41:14.839Z,90.71
2022-09-24T18:46:14.847Z,90.71
2022-09-24T18:51:14.727Z,90.80
2022-09-24T18:56:14.816Z,91.29
2022-09-24T19:01:14.680Z,90.90
2022-09-24T19:06:14.573Z,91.10
2022-09-24T19:11:15.888Z,91.49
2022-09-24T19:16:14.395Z,91.29
2022-09-24T19:21:15.292Z,91.39
2022-09-24T19:26:14.288Z,91.49
2022-09-24T19:31:14.240Z,91.69
2022-09-24T19:36:14.235Z,91.69
2022-09-24T19:41:14.068Z,91.49
2022-09-24T19:46:15.411Z,91.69
2022-09-24T19:51:14.114Z,91.99
2022-09-24T19:56:13.877Z,91.59
2022-09-24T20:01:17.371Z,91.89
2022-09-24T20:06:13.734Z,91.59
2022-09-24T20:11:15.122Z,91.29
2022-09-24T20:16:14.403Z,91.10
2022-09-24T20:21:13.528Z,91.79
2022-09-24T20:26:13.421Z,91.20
2022-09-24T20:31:13.425Z,91.10
2022-09-24T20:36:17.315Z,91.10
2022-09-24T20:41:14.455Z,91.79
2022-09-24T20:46:13.208Z,91.69
2022-09-24T20:51:13.297Z,91.59
2022-09-24T20:56:13.050Z,91.39
2022-09-24T21:01:13.001Z,91.69
2022-09-24T21:06:13.026Z,91.20
2022-09-24T21:11:12.855Z,91.39
2022-09-24T21:16:12.824Z,91.20
2022-09-24T21:21:12.879Z,91.10
2022-09-24T21:26:12.698Z,91.10
2022-09-24T21:31:12.656Z,91.20
2022-09-24T21:36:13.065Z,91.29
2022-09-24T21:41:12.478Z,90.71
2022-09-24T21:46:12.416Z,90.90
2022-09-24T21:51:12.290Z,90.80
2022-09-24T21:56:12.222Z,90.51
2022-09-24T22:01:12.233Z,90.90
2022-09-24T22:06:12.081Z,90.80
2022-09-24T22:11:12.025Z,90.71
2022-09-24T22:16:11.990Z,90.80
2022-09-24T22:21:11.886Z,90.80
2022-09-24T22:26:11.825Z,90.32
2022-09-24T22:31:11.815Z,90.71
2022-09-24T22:36:11.688Z,90.51
2022-09-24T22:41:11.608Z,90.41
2022-09-24T22:46:11.682Z,90.32
2022-09-24T22:51:11.592Z,90.32
2022-09-24T22:56:11.410Z,90.22
2022-09-24T23:01:11.431Z,90.22
2022-09-24T23:06:11.293Z,90.41
2022-09-24T23:11:11.194Z,90.22
2022-09-24T23:16:11.220Z,90.61
2022-09-24T23:21:12.021Z,90.51
2022-09-24T23:26:15.555Z,90.32
2022-09-24T23:31:12.000Z,90.03
2022-09-24T23:36:10.878Z,89.93
2022-09-24T23:41:10.815Z,90.22
2022-09-24T23:46:10.783Z,90.12
2022-09-24T23:51:10.673Z,90.03
2022-09-24T23:56:10.628Z,90.03
